createdAt,value
2019-02-21T00:00:28.233Z,21.20
2019-02-21T00:02:29.337Z,21.80
2019-02-21T00:03:28.325Z,21.20
2019-02-21T00:04:28.203Z,20.90
2019-02-21T00:06:29.305Z,21.30
2019-02-21T00:07:28.235Z,21.30
2019-02-21T00:08:28.201Z,21.70
2019-02-21T00:09:28.264Z,21.40
2019-02-21T00:10:28.126Z,21.40
2019-02-21T00:11:28.142Z,21.40
2019-02-21T00:12:28.103Z,21.90
2019-02-21T00:13:28.175Z,20.90
2019-02-21T00:14:28.118Z,21.40
2019-02-21T00:15:28.172Z,20.70
2019-02-21T00:16:28.065Z,22.00
2019-02-21T00:17:28.079Z,22.00
2019-02-21T00:18:28.041Z,21.00
2019-02-21T00:19:28.119Z,21.60
2019-02-21T00:20:28.014Z,21.20
2019-02-21T00:22:29.166Z,21.30
2019-02-21T00:23:28.207Z,21.20
2019-02-21T00:24:28.128Z,22.10
2019-02-21T00:26:36.914Z,21.40
2019-02-21T00:27:36.956Z,21.50
2019-02-21T00:29:36.897Z,22.00
2019-02-21T00:31:45.956Z,22.10
2019-02-21T00:32:45.842Z,24.10
2019-02-21T00:33:45.932Z,21.50
2019-02-21T00:34:45.843Z,21.90
2019-02-21T00:35:45.918Z,22.70
2019-02-21T00:36:45.794Z,21.90
2019-02-21T00:37:45.836Z,22.60
2019-02-21T00:38:45.790Z,22.70
2019-02-21T00:39:45.880Z,23.10
2019-02-21T00:40:45.750Z,22.70
2019-02-21T00:41:45.858Z,22.60
2019-02-21T00:42:45.731Z,23.10
2019-02-21T00:43:45.769Z,22.80
2019-02-21T00:44:45.742Z,23.10
2019-02-21T00:45:45.789Z,22.80
2019-02-21T00:46:45.692Z,23.40
2019-02-21T00:47:45.820Z,23.70
2019-02-21T00:48:45.669Z,22.40
2019-02-21T00:49:45.743Z,23.20
2019-02-21T00:50:45.640Z,23.50
2019-02-21T00:51:45.731Z,24.50
2019-02-21T00:52:45.625Z,23.30
2019-02-21T00:53:45.640Z,23.60
2019-02-21T00:54:45.601Z,23.70
2019-02-21T00:55:45.675Z,23.00
2019-02-21T00:56:45.576Z,24.70
2019-02-21T00:57:45.663Z,25.00
2019-02-21T00:58:45.562Z,23.70
2019-02-21T00:59:45.576Z,23.70
2019-02-21T01:00:46.778Z,23.80
2019-02-21T01:01:45.590Z,24.50
2019-02-21T01:02:45.512Z,23.90
2019-02-21T01:03:45.600Z,24.50
2019-02-21T01:04:45.485Z,24.00
2019-02-21T01:05:46.566Z,24.00
2019-02-21T01:06:45.463Z,24.60
2019-02-21T01:07:45.526Z,24.90
2019-02-21T01:08:45.450Z,24.20
2019-02-21T01:10:46.583Z,25.70
2019-02-21T01:11:45.452Z,25.00
2019-02-21T01:12:45.398Z,24.80
2019-02-21T01:13:45.465Z,24.30
2019-02-21T01:14:45.382Z,25.40
2019-02-21T01:15:45.507Z,25.70
2019-02-21T01:16:45.381Z,25.60
2019-02-21T01:17:45.387Z,26.70
2019-02-21T01:18:45.333Z,26.80
2019-02-21T01:19:45.418Z,26.30
2019-02-21T01:20:45.336Z,26.70
2019-02-21T01:21:45.344Z,26.20
2019-02-21T01:22:45.289Z,26.90
2019-02-21T01:23:45.351Z,27.30
2019-02-21T01:24:45.264Z,25.90
2019-02-21T01:25:45.344Z,27.20
2019-02-21T01:26:45.270Z,27.10
2019-02-21T01:27:45.360Z,26.00
2019-02-21T01:28:45.220Z,26.40
2019-02-21T01:29:45.280Z,27.40
2019-02-21T01:30:45.198Z,26.80
2019-02-21T01:31:45.314Z,27.80
2019-02-21T01:32:45.174Z,27.00
2019-02-21T01:33:45.194Z,26.40
2019-02-21T01:34:45.152Z,26.60
2019-02-21T01:35:45.243Z,27.30
2019-02-21T01:36:45.164Z,26.20
2019-02-21T01:37:45.250Z,28.30
2019-02-21T01:38:45.119Z,27.40
2019-02-21T01:39:45.143Z,28.10
2019-02-21T01:40:45.084Z,28.20
2019-02-21T01:41:45.149Z,27.30
2019-02-21T01:42:45.084Z,27.40
2019-02-21T01:43:45.166Z,27.60
2019-02-21T01:44:45.083Z,27.60
2019-02-21T01:45:45.075Z,26.70
2019-02-21T01:46:45.022Z,27.90
2019-02-21T01:47:45.115Z,28.00
2019-02-21T01:48:44.998Z,27.50
2019-02-21T01:49:45.103Z,29.10
2019-02-21T01:50:44.983Z,28.70
2019-02-21T01:51:45.030Z,29.10
2019-02-21T01:52:44.950Z,28.90
2019-02-21T01:53:45.065Z,29.10
2019-02-21T01:54:44.930Z,28.80
2019-02-21T01:55:45.048Z,28.40
2019-02-21T01:56:44.908Z,29.70
2019-02-21T01:57:44.959Z,28.50
2019-02-21T01:58:44.911Z,29.00
2019-02-21T01:59:44.969Z,28.70
2019-02-21T02:00:44.863Z,28.40
2019-02-21T02:01:44.900Z,29.50
2019-02-21T02:02:44.876Z,29.60
2019-02-21T02:03:44.898Z,29.90
2019-02-21T02:04:44.816Z,29.50
2019-02-21T02:05:44.916Z,30.90
2019-02-21T02:06:44.800Z,29.90
2019-02-21T02:07:44.863Z,30.00
2019-02-21T02:08:44.774Z,28.70
2019-02-21T02:09:44.835Z,30.00
2019-02-21T02:10:44.752Z,30.10
2019-02-21T02:11:44.852Z,29.90
2019-02-21T02:12:44.760Z,29.80
2019-02-21T02:13:44.788Z,30.30
2019-02-21T02:14:44.707Z,29.70
2019-02-21T02:15:44.790Z,29.70
2019-02-21T02:16:44.680Z,30.50
2019-02-21T02:17:44.786Z,30.80
2019-02-21T02:18:44.686Z,29.90
2019-02-21T02:20:45.806Z,30.80
2019-02-21T02:21:44.708Z,30.30
2019-02-21T02:22:44.661Z,29.60
2019-02-21T02:23:44.750Z,30.40
2019-02-21T02:24:44.608Z,29.70
2019-02-21T02:25:44.637Z,30.20
2019-02-21T02:26:44.568Z,30.30
2019-02-21T02:27:44.650Z,29.70
2019-02-21T02:28:44.573Z,29.90
2019-02-21T02:29:44.564Z,30.80
2019-02-21T02:30:44.524Z,32.20
2019-02-21T02:32:45.646Z,31.00
2019-02-21T02:33:44.621Z,31.50
2019-02-21T02:34:44.478Z,29.50
2019-02-21T02:35:44.504Z,29.60
2019-02-21T02:36:44.465Z,30.10
2019-02-21T02:37:44.523Z,31.20
2019-02-21T02:38:44.456Z,30.40
2019-02-21T02:39:44.557Z,31.60
2019-02-21T02:40:44.417Z,30.90
2019-02-21T02:41:44.442Z,31.30
2019-02-21T02:42:44.390Z,31.60
2019-02-21T02:43:45.513Z,31.60
2019-02-21T02:44:44.374Z,30.30
2019-02-21T02:45:44.470Z,30.80
2019-02-21T02:46:44.358Z,31.10
2019-02-21T02:47:44.386Z,30.80
2019-02-21T02:48:44.360Z,31.10
2019-02-21T02:49:44.621Z,30.40
2019-02-21T02:50:44.302Z,30.00
2019-02-21T02:51:44.405Z,29.80
2019-02-21T02:52:44.283Z,31.10
2019-02-21T02:53:44.322Z,30.60
2019-02-21T02:54:44.283Z,30.20
2019-02-21T02:55:44.388Z,31.90
2019-02-21T02:56:44.240Z,30.80
2019-02-21T02:57:44.349Z,29.20
2019-02-21T02:58:45.624Z,30.20
2019-02-21T02:59:44.306Z,29.50
2019-02-21T03:00:44.189Z,29.90
2019-02-21T03:01:44.273Z,29.60
2019-02-21T03:02:44.167Z,30.20
2019-02-21T03:04:45.353Z,30.20
2019-02-21T03:05:44.224Z,30.10
2019-02-21T03:06:44.127Z,30.10
2019-02-21T03:07:44.208Z,29.30
2019-02-21T03:08:44.103Z,28.90
2019-02-21T03:09:44.122Z,30.00
2019-02-21T03:10:44.188Z,28.80
2019-02-21T03:11:44.132Z,30.40
2019-02-21T03:12:44.065Z,28.60
2019-02-21T03:13:44.176Z,29.30
2019-02-21T03:14:44.070Z,29.30
2019-02-21T03:15:44.098Z,28.30
2019-02-21T03:16:44.009Z,28.30
2019-02-21T03:17:44.076Z,27.60
2019-02-21T03:18:43.995Z,29.30
2019-02-21T03:19:44.091Z,27.90
2019-02-21T03:20:44.033Z,28.50
2019-02-21T03:21:44.000Z,28.20
2019-02-21T03:22:43.959Z,28.40
2019-02-21T03:23:44.012Z,29.20
2019-02-21T03:24:43.917Z,28.80
2019-02-21T03:25:44.057Z,29.40
2019-02-21T03:26:43.909Z,28.60
2019-02-21T03:27:43.940Z,28.40
2019-02-21T03:28:43.881Z,28.70
2019-02-21T03:29:43.952Z,29.80
2019-02-21T03:30:43.881Z,29.80
2019-02-21T03:31:54.745Z,28.70
2019-02-21T03:32:44.828Z,29.00
2019-02-21T03:33:43.879Z,28.90
2019-02-21T03:34:43.810Z,30.00
2019-02-21T03:35:43.921Z,30.00
2019-02-21T03:36:43.784Z,30.10
2019-02-21T03:37:43.827Z,31.40
2019-02-21T03:38:43.761Z,30.50
2019-02-21T03:39:43.815Z,30.90
2019-02-21T03:40:43.774Z,31.10
2019-02-21T03:41:43.861Z,30.70
2019-02-21T03:42:43.730Z,31.10
2019-02-21T03:43:43.745Z,31.10
2019-02-21T03:44:43.699Z,29.90
2019-02-21T03:45:43.755Z,32.00
2019-02-21T03:46:43.700Z,32.00
2019-02-21T03:47:43.769Z,31.10
2019-02-21T03:48:43.654Z,31.70
2019-02-21T03:50:44.761Z,31.80
2019-02-21T03:51:44.751Z,32.10
2019-02-21T03:52:43.605Z,31.70
2019-02-21T03:53:43.713Z,32.80
2019-02-21T03:54:43.602Z,33.60
2019-02-21T03:55:43.624Z,32.00
2019-02-21T03:56:43.595Z,32.50
2019-02-21T03:57:43.640Z,32.10
2019-02-21T03:58:43.537Z,32.60
2019-02-21T03:59:43.649Z,32.90
2019-02-21T04:00:43.520Z,33.00
2019-02-21T04:01:43.595Z,32.60
2019-02-21T04:02:43.498Z,34.30
2019-02-21T04:03:43.576Z,32.20
2019-02-21T04:04:43.492Z,33.80
2019-02-21T04:05:43.483Z,34.10
2019-02-21T04:06:43.487Z,33.00
2019-02-21T04:07:43.500Z,33.20
2019-02-21T04:08:43.429Z,33.40
2019-02-21T04:10:43.401Z,32.60
2019-02-21T04:11:43.460Z,33.70
2019-02-21T04:12:43.417Z,32.40
2019-02-21T04:13:43.442Z,32.70
2019-02-21T04:14:43.366Z,33.80
2019-02-21T04:15:43.453Z,33.10
2019-02-21T04:16:43.346Z,32.70
2019-02-21T04:17:44.425Z,33.00
2019-02-21T04:18:43.313Z,33.00
2019-02-21T04:19:43.381Z,34.20
2019-02-21T04:20:43.295Z,35.00
2019-02-21T04:21:43.391Z,34.40
2019-02-21T04:22:43.294Z,34.10
2019-02-21T04:23:43.305Z,35.40
2019-02-21T04:24:43.254Z,36.10
2019-02-21T04:25:43.338Z,35.90
2019-02-21T04:26:43.227Z,35.00
2019-02-21T04:27:43.364Z,36.60
2019-02-21T04:28:45.652Z,35.80
2019-02-21T04:29:43.245Z,35.40
2019-02-21T04:30:43.184Z,35.80
2019-02-21T04:31:43.260Z,36.00
2019-02-21T04:32:43.194Z,35.50
2019-02-21T04:33:43.271Z,34.70
2019-02-21T04:34:43.164Z,36.50
2019-02-21T04:35:43.187Z,37.00
2019-02-21T04:36:43.112Z,36.40
2019-02-21T04:37:43.231Z,37.20
2019-02-21T04:38:43.097Z,35.60
2019-02-21T04:40:44.206Z,35.90
2019-02-21T04:41:43.127Z,37.40
2019-02-21T04:42:43.078Z,36.50
2019-02-21T04:43:43.138Z,35.70
2019-02-21T04:44:43.037Z,34.90
2019-02-21T04:45:43.045Z,35.30
2019-02-21T04:46:43.002Z,36.50
2019-02-21T04:47:43.094Z,35.40
2019-02-21T04:48:43.007Z,36.80
2019-02-21T04:49:43.085Z,35.80
2019-02-21T04:50:42.960Z,35.50
2019-02-21T04:51:42.991Z,35.60
2019-02-21T04:52:42.937Z,36.70
2019-02-21T04:53:43.030Z,37.10
2019-02-21T04:54:42.912Z,35.90
2019-02-21T04:55:43.018Z,36.00
2019-02-21T04:56:42.905Z,35.30
2019-02-21T04:57:42.929Z,36.00
2019-02-21T04:58:42.905Z,36.10
2019-02-21T04:59:42.958Z,35.30
2019-02-21T05:00:42.848Z,36.20
2019-02-21T05:02:28.985Z,36.30
2019-02-21T05:02:43.902Z,34.60
2019-02-21T05:03:42.857Z,35.70
2019-02-21T05:04:42.908Z,36.30
2019-02-21T05:05:42.792Z,36.70
2019-02-21T05:07:43.901Z,35.60
2019-02-21T05:08:43.852Z,36.90
2019-02-21T05:09:42.748Z,36.20
2019-02-21T05:10:42.812Z,35.40
2019-02-21T05:11:42.728Z,36.20
2019-02-21T05:12:42.824Z,36.60
2019-02-21T05:13:42.712Z,37.10
2019-02-21T05:14:42.870Z,36.10
2019-02-21T05:15:42.704Z,36.40
2019-02-21T05:16:44.614Z,36.20
2019-02-21T05:17:42.656Z,35.80
2019-02-21T05:18:42.765Z,37.00
2019-02-21T05:19:42.661Z,36.20
2019-02-21T05:20:42.675Z,35.60
2019-02-21T05:21:42.616Z,36.50
2019-02-21T05:22:42.691Z,37.10
2019-02-21T05:23:42.597Z,36.20
2019-02-21T05:24:42.850Z,37.60
2019-02-21T05:25:42.569Z,36.60
2019-02-21T05:26:42.622Z,37.40
2019-02-21T05:27:42.569Z,37.40
2019-02-21T05:28:42.545Z,38.00
2019-02-21T05:29:42.562Z,36.30
2019-02-21T05:30:42.647Z,37.90
2019-02-21T05:31:42.502Z,37.20
2019-02-21T05:32:42.556Z,38.60
2019-02-21T05:33:42.481Z,38.20
2019-02-21T05:34:42.602Z,37.00
2019-02-21T05:35:42.491Z,37.20
2019-02-21T05:36:42.536Z,37.40
2019-02-21T05:37:42.449Z,37.30
2019-02-21T05:38:42.495Z,37.10
2019-02-21T05:39:42.417Z,37.10
2019-02-21T05:40:42.551Z,36.80
2019-02-21T05:41:42.413Z,38.10
2019-02-21T05:42:42.440Z,37.20
2019-02-21T05:43:42.446Z,38.80
2019-02-21T05:44:42.378Z,38.90
2019-02-21T05:45:42.390Z,40.30
2019-02-21T05:46:42.451Z,39.60
2019-02-21T05:47:42.340Z,37.70
2019-02-21T05:48:42.359Z,38.20
2019-02-21T05:49:42.311Z,37.60
2019-02-21T05:50:42.403Z,37.40
2019-02-21T05:51:42.292Z,39.00
2019-02-21T05:52:42.386Z,39.10
2019-02-21T05:53:42.265Z,38.90
2019-02-21T05:54:42.301Z,39.80
2019-02-21T05:55:42.266Z,40.10
2019-02-21T05:56:44.294Z,39.20
2019-02-21T05:57:42.218Z,38.60
2019-02-21T05:58:42.326Z,40.20
2019-02-21T05:59:42.199Z,38.40
2019-02-21T06:00:42.235Z,38.90
2019-02-21T06:01:42.208Z,39.40
2019-02-21T06:02:53.119Z,39.90
2019-02-21T06:03:43.281Z,39.30
2019-02-21T06:04:42.147Z,41.00
2019-02-21T06:05:42.332Z,39.70
2019-02-21T06:06:42.212Z,39.30
2019-02-21T06:07:42.110Z,40.10
2019-02-21T06:08:44.138Z,39.50
2019-02-21T06:09:42.370Z,40.50
2019-02-21T06:10:42.101Z,38.60
2019-02-21T06:11:42.117Z,40.20
2019-02-21T06:12:42.116Z,40.10
2019-02-21T06:13:44.613Z,41.30
2019-02-21T06:14:42.041Z,40.00
2019-02-21T06:15:42.023Z,39.30
2019-02-21T06:16:42.040Z,41.80
2019-02-21T06:17:41.998Z,40.70
2019-02-21T06:18:42.006Z,41.70
2019-02-21T06:19:41.976Z,39.20
2019-02-21T06:20:41.970Z,39.50
2019-02-21T06:21:41.983Z,40.10
2019-02-21T06:22:41.953Z,40.10
2019-02-21T06:23:41.933Z,39.60
2019-02-21T06:25:50.808Z,39.60
2019-02-21T06:26:42.925Z,40.80
2019-02-21T06:27:41.898Z,41.00
2019-02-21T06:28:41.885Z,39.50
2019-02-21T06:30:43.409Z,41.50
2019-02-21T06:31:41.887Z,40.20
2019-02-21T06:32:41.870Z,40.60
2019-02-21T06:33:41.840Z,40.60
2019-02-21T06:34:41.820Z,40.70
2019-02-21T06:35:41.811Z,40.60
2019-02-21T06:36:41.825Z,41.40
2019-02-21T06:37:41.811Z,41.20
2019-02-21T06:38:41.773Z,41.60
2019-02-21T06:39:41.808Z,39.10
2019-02-21T06:40:41.766Z,41.30
2019-02-21T06:41:42.777Z,40.40
2019-02-21T06:42:41.776Z,41.10
2019-02-21T06:44:42.831Z,40.90
2019-02-21T06:47:28.721Z,40.40
2019-02-21T06:48:28.784Z,40.30
2019-02-21T06:49:32.660Z,41.30
2019-02-21T06:50:28.689Z,39.90
2019-02-21T06:51:28.523Z,40.10
2019-02-21T06:52:28.599Z,39.20
2019-02-21T06:53:28.531Z,39.40
2019-02-21T06:54:28.594Z,40.80
2019-02-21T06:55:28.479Z,42.20
2019-02-21T06:57:29.609Z,40.70
2019-02-21T06:58:28.465Z,39.90
2019-02-21T06:59:28.434Z,40.30
2019-02-21T07:00:28.428Z,39.10
2019-02-21T07:01:29.595Z,39.80
2019-02-21T07:02:28.623Z,39.40
2019-02-21T07:03:29.138Z,38.70
2019-02-21T07:05:29.497Z,40.50
2019-02-21T07:06:31.814Z,38.50
2019-02-21T07:07:28.395Z,39.60
2019-02-21T07:08:28.345Z,40.10
2019-02-21T07:09:28.363Z,41.00
2019-02-21T07:10:28.319Z,38.60
2019-02-21T07:12:29.332Z,39.50
2019-02-21T07:13:28.286Z,39.20
2019-02-21T07:14:28.269Z,39.60
2019-02-21T07:15:28.264Z,39.20
2019-02-21T07:16:28.247Z,38.80
2019-02-21T07:17:28.243Z,38.30
2019-02-21T07:18:29.025Z,39.30
2019-02-21T07:19:28.220Z,37.60
2019-02-21T07:20:28.212Z,38.40
2019-02-21T07:21:28.198Z,39.00
2019-02-21T07:22:28.182Z,39.00
2019-02-21T07:23:28.205Z,39.00
2019-02-21T07:24:28.158Z,38.80
2019-02-21T07:25:28.153Z,40.40
2019-02-21T07:26:28.145Z,38.70
2019-02-21T07:27:28.131Z,37.40
2019-02-21T07:28:28.170Z,38.30
2019-02-21T07:29:28.110Z,38.60
2019-02-21T07:30:28.092Z,38.90
2019-02-21T07:31:29.634Z,39.20
2019-02-21T07:32:28.072Z,38.60
2019-02-21T07:33:29.156Z,37.20
2019-02-21T07:34:30.361Z,38.00
2019-02-21T07:35:28.051Z,38.60
2019-02-21T07:36:28.032Z,38.80
2019-02-21T07:37:28.019Z,38.30
2019-02-21T07:38:28.025Z,36.00
2019-02-21T07:39:35.625Z,38.10
2019-02-21T07:40:28.989Z,37.30
2019-02-21T07:41:28.001Z,37.80
2019-02-21T07:42:27.963Z,36.70
2019-02-21T07:43:27.969Z,37.90
2019-02-21T07:44:27.966Z,36.80
2019-02-21T07:46:29.047Z,36.70
2019-02-21T07:47:27.917Z,37.80
2019-02-21T07:48:27.898Z,37.70
2019-02-21T07:49:27.913Z,38.60
2019-02-21T07:50:27.903Z,37.30
2019-02-21T07:51:27.866Z,37.40
2019-02-21T07:52:27.854Z,37.10
2019-02-21T07:53:27.846Z,38.00
2019-02-21T07:54:27.847Z,37.40
2019-02-21T07:55:27.871Z,38.10
2019-02-21T07:56:27.805Z,36.60
2019-02-21T07:57:27.800Z,38.20
2019-02-21T07:58:27.798Z,36.50
2019-02-21T07:59:28.801Z,36.70
2019-02-21T08:00:27.758Z,37.20
2019-02-21T08:01:27.759Z,36.60
2019-02-21T08:02:27.739Z,36.00
2019-02-21T08:03:41.146Z,36.20
2019-02-21T08:04:28.756Z,37.30
2019-02-21T08:05:27.775Z,36.90
2019-02-21T08:06:27.695Z,36.00
2019-02-21T08:07:27.693Z,35.80
2019-02-21T08:08:27.667Z,35.30
2019-02-21T08:09:28.097Z,36.50
2019-02-21T08:10:33.589Z,36.00
2019-02-21T08:11:28.641Z,35.90
2019-02-21T08:12:27.625Z,36.60
2019-02-21T08:13:27.632Z,37.40
2019-02-21T08:14:27.607Z,35.80
2019-02-21T08:15:27.929Z,35.80
2019-02-21T08:16:27.582Z,36.40
2019-02-21T08:17:28.067Z,37.20
2019-02-21T08:18:27.563Z,36.30
2019-02-21T08:19:27.663Z,37.40
2019-02-21T08:20:34.185Z,37.40
2019-02-21T08:21:28.663Z,37.20
2019-02-21T08:22:27.540Z,37.00
2019-02-21T08:23:27.504Z,36.70
2019-02-21T08:24:27.496Z,37.70
2019-02-21T08:25:27.572Z,37.90
2019-02-21T08:26:27.519Z,39.10
2019-02-21T08:27:27.462Z,38.30
2019-02-21T08:28:27.459Z,39.60
2019-02-21T08:29:27.435Z,38.60
2019-02-21T08:30:29.225Z,39.30
2019-02-21T08:31:27.442Z,37.80
2019-02-21T08:32:27.411Z,39.10
2019-02-21T08:33:27.402Z,37.70
2019-02-21T08:34:27.389Z,38.60
2019-02-21T08:35:27.369Z,40.60
2019-02-21T08:36:27.393Z,42.30
2019-02-21T08:37:27.367Z,39.40
2019-02-21T08:38:27.347Z,38.60
2019-02-21T08:39:27.330Z,39.50
2019-02-21T08:40:27.323Z,38.20
2019-02-21T08:41:27.328Z,38.80
2019-02-21T08:42:27.299Z,38.30
2019-02-21T08:43:27.294Z,38.10
2019-02-21T08:44:28.879Z,41.00
2019-02-21T08:45:27.262Z,39.90
2019-02-21T08:46:27.281Z,37.70
2019-02-21T08:47:27.241Z,38.50
2019-02-21T08:49:28.344Z,38.90
2019-02-21T08:50:27.216Z,39.40
2019-02-21T08:51:27.227Z,39.00
2019-02-21T08:52:27.194Z,38.20
2019-02-21T08:53:28.140Z,40.40
2019-02-21T08:54:27.178Z,39.70
2019-02-21T08:55:27.153Z,39.20
2019-02-21T08:56:29.782Z,38.10
2019-02-21T08:57:27.136Z,39.90
2019-02-21T08:58:27.122Z,39.00
2019-02-21T08:59:27.111Z,39.40
2019-02-21T09:00:27.104Z,39.20
2019-02-21T09:01:27.080Z,38.40
2019-02-21T09:02:27.112Z,39.40
2019-02-21T09:03:27.069Z,39.20
2019-02-21T09:04:27.980Z,39.60
2019-02-21T09:05:27.045Z,39.10
2019-02-21T09:06:27.035Z,38.10
2019-02-21T09:07:27.047Z,38.70
2019-02-21T09:08:33.746Z,39.40
2019-02-21T09:09:28.002Z,40.80
2019-02-21T09:10:27.822Z,40.00
2019-02-21T09:11:26.974Z,40.20
2019-02-21T09:12:27.020Z,40.00
2019-02-21T09:13:26.966Z,40.60
2019-02-21T09:14:26.950Z,39.20
2019-02-21T09:15:26.937Z,39.70
2019-02-21T09:16:26.927Z,41.20
2019-02-21T09:17:26.940Z,40.10
2019-02-21T09:18:26.919Z,41.40
2019-02-21T09:19:26.890Z,40.70
2019-02-21T09:20:26.881Z,39.10
2019-02-21T09:21:26.868Z,39.70
2019-02-21T09:22:26.895Z,40.10
2019-02-21T09:23:26.854Z,40.80
2019-02-21T09:24:38.086Z,39.60
2019-02-21T09:25:27.826Z,39.60
2019-02-21T09:26:26.818Z,40.10
2019-02-21T09:27:26.837Z,40.90
2019-02-21T09:28:26.799Z,38.80
2019-02-21T09:29:26.788Z,39.60
2019-02-21T09:30:26.791Z,38.70
2019-02-21T09:31:26.757Z,40.10
2019-02-21T09:32:28.780Z,40.20
2019-02-21T09:33:26.769Z,40.90
2019-02-21T09:34:26.740Z,39.90
2019-02-21T09:35:26.719Z,39.40
2019-02-21T09:36:26.727Z,40.60
2019-02-21T09:37:26.692Z,41.00
2019-02-21T09:38:26.726Z,40.70
2019-02-21T09:39:26.674Z,39.40
2019-02-21T09:40:28.467Z,39.20
2019-02-21T09:41:28.587Z,41.10
2019-02-21T09:42:26.649Z,43.10
2019-02-21T09:43:26.680Z,41.10
2019-02-21T09:44:27.471Z,41.20
2019-02-21T09:45:26.611Z,41.00
2019-02-21T09:46:26.613Z,40.20
2019-02-21T09:47:26.585Z,40.70
2019-02-21T09:48:26.578Z,39.60
2019-02-21T09:49:26.591Z,42.00
2019-02-21T09:50:26.571Z,40.40
2019-02-21T09:51:26.539Z,41.10
2019-02-21T09:52:26.542Z,41.60
2019-02-21T09:53:26.572Z,41.40
2019-02-21T09:54:26.539Z,41.60
2019-02-21T09:55:26.494Z,41.50
2019-02-21T09:56:30.265Z,41.20
2019-02-21T09:57:26.471Z,40.60
2019-02-21T09:58:26.467Z,41.00
2019-02-21T09:59:28.738Z,41.90
2019-02-21T10:00:26.467Z,41.90
2019-02-21T10:01:26.441Z,42.90
2019-02-21T10:03:27.544Z,42.20
2019-02-21T10:04:32.162Z,42.00
2019-02-21T10:05:27.384Z,41.20
2019-02-21T10:06:26.417Z,41.80
2019-02-21T10:07:26.480Z,40.70
2019-02-21T10:08:26.436Z,42.90
2019-02-21T10:09:26.509Z,42.70
2019-02-21T10:10:26.580Z,43.70
2019-02-21T10:11:26.415Z,43.50
2019-02-21T10:12:26.626Z,42.60
2019-02-21T10:13:26.418Z,41.30
2019-02-21T10:14:26.736Z,42.20
2019-02-21T10:15:26.537Z,40.00
2019-02-21T10:16:26.493Z,42.00
2019-02-21T10:17:26.500Z,42.20
2019-02-21T10:18:26.245Z,40.80
2019-02-21T10:19:26.246Z,42.40
2019-02-21T10:20:26.249Z,41.30
2019-02-21T10:21:26.215Z,41.60
2019-02-21T10:22:26.347Z,43.30
2019-02-21T10:23:26.209Z,42.30
2019-02-21T10:24:26.183Z,41.90
2019-02-21T10:25:26.190Z,42.50
2019-02-21T10:26:26.163Z,42.00
2019-02-21T10:27:26.142Z,42.80
2019-02-21T10:28:26.131Z,42.10
2019-02-21T10:29:26.121Z,41.30
2019-02-21T10:30:26.139Z,43.40
2019-02-21T10:31:26.098Z,42.40
2019-02-21T10:32:26.088Z,43.10
2019-02-21T10:33:26.120Z,42.90
2019-02-21T10:34:26.069Z,43.50
2019-02-21T10:35:26.089Z,42.80
2019-02-21T10:36:26.048Z,43.80
2019-02-21T10:37:26.037Z,43.00
2019-02-21T10:38:26.030Z,44.20
2019-02-21T10:39:26.008Z,42.00
2019-02-21T10:40:26.042Z,44.70
2019-02-21T10:41:25.996Z,44.10
2019-02-21T10:42:25.990Z,42.30
2019-02-21T10:43:25.965Z,41.20
2019-02-21T10:44:25.959Z,42.10
2019-02-21T10:45:25.940Z,41.50
2019-02-21T10:46:25.964Z,40.30
2019-02-21T10:47:25.916Z,39.00
2019-02-21T10:48:25.914Z,41.00
2019-02-21T10:49:25.909Z,39.60
2019-02-21T10:50:25.892Z,40.10
2019-02-21T10:51:25.898Z,40.10
2019-02-21T10:52:25.877Z,38.80
2019-02-21T10:53:25.857Z,42.20
2019-02-21T10:54:25.851Z,40.90
2019-02-21T10:55:25.842Z,41.50
2019-02-21T10:56:25.850Z,39.80
2019-02-21T10:57:25.814Z,40.20
2019-02-21T10:58:25.800Z,40.20
2019-02-21T10:59:25.820Z,40.50
2019-02-21T11:00:25.796Z,39.20
2019-02-21T11:01:25.794Z,40.60
2019-02-21T11:02:25.756Z,42.30
2019-02-21T11:03:25.743Z,40.40
2019-02-21T11:04:25.737Z,40.40
2019-02-21T11:05:25.744Z,39.00
2019-02-21T11:06:25.741Z,39.70
2019-02-21T11:07:25.702Z,39.70
2019-02-21T11:08:25.692Z,39.50
2019-02-21T11:09:25.679Z,40.20
2019-02-21T11:10:25.675Z,39.40
2019-02-21T11:11:25.676Z,38.50
2019-02-21T11:12:25.684Z,38.40
2019-02-21T11:13:25.633Z,37.00
2019-02-21T11:14:25.624Z,38.70
2019-02-21T11:15:25.605Z,36.50
2019-02-21T11:16:25.649Z,38.60
2019-02-21T11:17:25.918Z,39.10
2019-02-21T11:18:25.584Z,37.20
2019-02-21T11:19:25.570Z,38.20
2019-02-21T11:20:25.560Z,37.80
2019-02-21T11:21:25.546Z,36.90
2019-02-21T11:22:25.564Z,38.10
2019-02-21T11:23:25.524Z,37.10
2019-02-21T11:24:25.524Z,36.40
2019-02-21T11:25:25.541Z,35.20
2019-02-21T11:26:25.496Z,35.90
2019-02-21T11:27:25.521Z,36.00
2019-02-21T11:28:25.475Z,35.70
2019-02-21T11:29:25.456Z,35.50
2019-02-21T11:30:25.451Z,35.80
2019-02-21T11:31:27.738Z,36.30
2019-02-21T11:32:25.456Z,35.60
2019-02-21T11:33:25.413Z,36.20
2019-02-21T11:34:25.414Z,34.80
2019-02-21T11:35:25.387Z,35.00
2019-02-21T11:36:25.380Z,35.70
2019-02-21T11:37:25.387Z,35.20
2019-02-21T11:38:25.361Z,33.00
2019-02-21T11:39:25.371Z,31.90
2019-02-21T11:40:25.342Z,31.70
2019-02-21T11:41:25.364Z,32.00
2019-02-21T11:42:25.396Z,32.20
2019-02-21T11:43:25.330Z,31.30
2019-02-21T11:44:25.298Z,31.00
2019-02-21T11:45:25.276Z,33.00
2019-02-21T11:46:25.282Z,32.60
2019-02-21T11:47:25.256Z,32.00
2019-02-21T11:48:25.389Z,32.40
2019-02-21T11:49:25.235Z,32.30
2019-02-21T11:50:25.230Z,32.30
2019-02-21T11:51:25.213Z,33.30
2019-02-21T11:52:25.285Z,33.50
2019-02-21T11:53:25.227Z,32.10
2019-02-21T11:54:27.202Z,31.70
2019-02-21T11:55:25.177Z,32.00
2019-02-21T11:56:25.161Z,32.10
2019-02-21T11:57:25.159Z,32.90
2019-02-21T11:58:25.168Z,32.50
2019-02-21T11:59:25.144Z,33.40
2019-02-21T12:00:25.125Z,32.80
2019-02-21T12:01:25.109Z,31.90
2019-02-21T12:02:25.102Z,33.70
2019-02-21T12:03:25.099Z,34.20
2019-02-21T12:04:25.070Z,33.90
2019-02-21T12:05:31.389Z,32.60
2019-02-21T12:06:26.051Z,33.90
2019-02-21T12:07:25.057Z,33.10
2019-02-21T12:08:25.057Z,33.20
2019-02-21T12:09:25.013Z,33.30
2019-02-21T12:10:25.005Z,34.10
2019-02-21T12:11:24.986Z,34.20
2019-02-21T12:12:24.989Z,32.70
2019-02-21T12:13:25.003Z,33.70
2019-02-21T12:14:24.960Z,34.70
2019-02-21T12:15:24.946Z,32.50
2019-02-21T12:16:24.936Z,31.00
2019-02-21T12:17:24.920Z,32.20
2019-02-21T12:18:24.946Z,31.80
2019-02-21T12:19:24.902Z,29.50
2019-02-21T12:20:24.904Z,28.90
2019-02-21T12:21:24.908Z,27.60
2019-02-21T12:22:24.867Z,27.20
2019-02-21T12:23:24.863Z,26.20
2019-02-21T12:24:24.878Z,25.70
2019-02-21T12:25:24.834Z,24.10
2019-02-21T12:26:24.827Z,22.80
2019-02-21T12:27:24.810Z,24.40
2019-02-21T12:28:24.808Z,24.10
2019-02-21T12:29:24.822Z,25.30
2019-02-21T12:30:24.791Z,23.10
2019-02-21T12:31:24.767Z,23.20
2019-02-21T12:32:24.764Z,24.70
2019-02-21T12:33:24.747Z,24.20
2019-02-21T12:34:24.759Z,23.10
2019-02-21T12:35:29.555Z,24.70
2019-02-21T12:36:25.722Z,24.50
2019-02-21T12:37:24.706Z,25.90
2019-02-21T12:38:24.707Z,24.90
2019-02-21T12:39:24.735Z,25.50
2019-02-21T12:40:24.697Z,24.30
2019-02-21T12:41:24.664Z,25.60
2019-02-21T12:42:24.657Z,25.40
2019-02-21T12:43:24.629Z,24.90
2019-02-21T12:44:24.629Z,24.50
2019-02-21T12:45:24.773Z,23.90
2019-02-21T12:46:24.606Z,25.00
2019-02-21T12:47:24.584Z,23.70
2019-02-21T12:48:24.586Z,23.70
2019-02-21T12:49:24.600Z,24.20
2019-02-21T12:50:24.591Z,25.40
2019-02-21T12:51:24.546Z,24.50
2019-02-21T12:52:24.541Z,22.10
2019-02-21T12:53:24.523Z,20.80
2019-02-21T12:54:24.831Z,20.60
2019-02-21T12:55:29.209Z,18.70
2019-02-21T12:57:25.617Z,19.50
2019-02-21T12:58:24.483Z,18.80
2019-02-21T12:59:24.455Z,17.30
2019-02-21T13:00:24.504Z,16.00
2019-02-21T13:01:24.441Z,15.90
2019-02-21T13:02:24.435Z,15.70
2019-02-21T13:03:24.408Z,16.10
2019-02-21T13:04:24.412Z,16.30
2019-02-21T13:05:24.436Z,15.60
2019-02-21T13:06:24.404Z,16.10
2019-02-21T13:07:24.365Z,16.90
2019-02-21T13:08:24.365Z,17.80
2019-02-21T13:09:24.363Z,18.20
2019-02-21T13:10:24.369Z,17.60
2019-02-21T13:11:24.329Z,17.30
2019-02-21T13:12:24.315Z,17.20
2019-02-21T13:13:24.300Z,17.20
2019-02-21T13:14:24.291Z,17.40
2019-02-21T13:15:24.321Z,17.60
2019-02-21T13:16:24.277Z,18.60
2019-02-21T13:17:24.267Z,18.60
2019-02-21T13:18:24.247Z,19.10